createdAt,value
2019-02-04T00:01:19.201Z,8.27
2019-02-04T00:03:52.652Z,8.37
2019-02-04T00:06:20.532Z,7.50
2019-02-04T00:08:47.903Z,8.17
2019-02-04T00:11:16.314Z,7.67
2019-02-04T00:13:44.350Z,6.97
2019-02-04T00:16:12.295Z,8.40
2019-02-04T00:18:39.923Z,7.37
2019-02-04T00:21:08.022Z,7.43
2019-02-04T00:23:35.938Z,6.63
2019-02-04T00:26:03.602Z,7.73
2019-02-04T00:28:31.415Z,7.13
2019-02-04T00:30:59.184Z,7.73
2019-02-04T00:33:26.584Z,7.30
2019-02-04T00:35:54.720Z,6.63
2019-02-04T00:38:22.521Z,8.43
2019-02-04T00:40:50.123Z,8.50
2019-02-04T00:43:17.739Z,8.63
2019-02-04T00:45:45.461Z,8.90
2019-02-04T00:48:14.195Z,8.07
2019-02-04T00:50:41.819Z,7.30
2019-02-04T00:53:09.992Z,8.90
2019-02-04T00:55:37.642Z,5.90
2019-02-04T00:58:05.108Z,6.57
2019-02-04T01:00:32.656Z,5.80
2019-02-04T01:03:01.360Z,6.63
2019-02-04T01:05:29.601Z,7.67
2019-02-04T01:07:57.141Z,6.73
2019-02-04T01:10:25.697Z,7.20
2019-02-04T01:12:53.823Z,7.27
2019-02-04T01:15:21.157Z,5.67
2019-02-04T01:17:48.543Z,5.83
2019-02-04T01:20:20.283Z,5.33
2019-02-04T01:22:47.954Z,7.30
2019-02-04T01:25:16.161Z,5.80
2019-02-04T01:27:43.538Z,6.80
2019-02-04T01:30:11.806Z,6.00
2019-02-04T01:32:39.115Z,4.50
2019-02-04T01:35:07.251Z,7.53
2019-02-04T01:37:35.310Z,7.40
2019-02-04T01:40:05.913Z,8.60
2019-02-04T01:42:33.625Z,7.80
2019-02-04T01:45:01.254Z,6.73
2019-02-04T01:47:30.563Z,8.57
2019-02-04T01:49:58.290Z,6.93
2019-02-04T01:52:26.039Z,7.60
2019-02-04T01:54:53.495Z,6.63
2019-02-04T01:57:21.002Z,9.13
2019-02-04T01:59:55.579Z,8.37
2019-02-04T02:02:27.021Z,8.20
2019-02-04T02:05:02.160Z,8.30
2019-02-04T02:07:40.839Z,7.57
2019-02-04T02:10:20.249Z,8.27
2019-02-04T02:12:50.450Z,7.80
2019-02-04T02:15:18.241Z,8.13
2019-02-04T02:17:55.959Z,9.27
2019-02-04T02:20:27.743Z,7.50
2019-02-04T02:22:55.498Z,9.23
2019-02-04T02:25:23.561Z,8.70
2019-02-04T02:27:54.122Z,8.90
2019-02-04T02:30:25.943Z,7.83
2019-02-04T02:32:54.212Z,8.87
2019-02-04T02:35:21.631Z,9.23
2019-02-04T02:37:49.861Z,8.73
2019-02-04T02:40:32.734Z,10.43
2019-02-04T02:43:00.572Z,10.57
2019-02-04T02:45:28.087Z,8.10
2019-02-04T02:47:55.720Z,9.90
2019-02-04T02:50:23.469Z,9.10
2019-02-04T02:52:51.708Z,9.60
2019-02-04T02:55:19.295Z,9.23
2019-02-04T02:57:46.929Z,8.57
2019-02-04T03:00:21.134Z,7.07
2019-02-04T03:02:49.158Z,7.83
2019-02-04T03:05:16.985Z,6.87
2019-02-04T03:07:44.746Z,9.07
2019-02-04T03:10:16.771Z,8.33
2019-02-04T03:12:44.520Z,8.50
2019-02-04T03:15:14.629Z,9.00
2019-02-04T03:17:51.428Z,9.63
2019-02-04T03:20:12.141Z,9.27
2019-02-04T03:22:39.698Z,6.70
2019-02-04T03:25:09.002Z,8.87
2019-02-04T03:27:37.347Z,8.90
2019-02-04T03:30:19.261Z,6.50
2019-02-04T03:32:46.917Z,8.70
2019-02-04T03:35:14.799Z,8.20
2019-02-04T03:37:42.316Z,7.53
2019-02-04T03:40:13.007Z,9.43
2019-02-04T03:42:40.436Z,9.57
2019-02-04T03:45:09.687Z,6.50
2019-02-04T03:47:37.531Z,8.30
2019-02-04T03:50:06.442Z,8.90
2019-02-04T03:52:33.826Z,8.77
2019-02-04T03:55:01.312Z,9.23
2019-02-04T03:57:29.054Z,9.87
2019-02-04T03:59:57.102Z,10.23
2019-02-04T04:02:25.311Z,11.33
2019-02-04T04:04:52.992Z,11.47
2019-02-04T04:07:20.846Z,11.23
2019-02-04T04:09:48.315Z,10.90
2019-02-04T04:12:16.390Z,11.67
2019-02-04T04:14:44.265Z,11.63
2019-02-04T04:17:11.771Z,9.90
2019-02-04T04:19:39.361Z,9.53
2019-02-04T04:22:07.343Z,10.20
2019-02-04T04:24:34.705Z,11.20
2019-02-04T04:27:02.084Z,9.60
2019-02-04T04:29:30.007Z,10.40
2019-02-04T04:31:57.540Z,11.27
2019-02-04T04:34:24.928Z,9.83
2019-02-04T04:36:52.208Z,10.77
2019-02-04T04:39:19.537Z,9.93
2019-02-04T04:41:47.170Z,10.43
2019-02-04T04:44:14.361Z,10.27
2019-02-04T04:46:42.140Z,13.15
2019-02-04T04:49:10.234Z,11.60
2019-02-04T04:51:37.356Z,9.57
2019-02-04T04:54:05.484Z,9.47
2019-02-04T04:56:33.194Z,9.27
2019-02-04T04:59:00.735Z,9.17
2019-02-04T05:01:28.466Z,10.10
2019-02-04T05:03:55.778Z,9.23
2019-02-04T05:06:23.048Z,9.07
2019-02-04T05:08:50.319Z,9.77
2019-02-04T05:11:17.733Z,8.80
2019-02-04T05:13:45.271Z,9.20
2019-02-04T05:16:12.507Z,8.87
2019-02-04T05:18:40.078Z,9.30
2019-02-04T05:21:07.735Z,9.20
2019-02-04T05:23:35.005Z,9.03
2019-02-04T05:26:02.358Z,9.50
2019-02-04T05:28:30.006Z,9.03
2019-02-04T05:30:57.867Z,9.60
2019-02-04T05:33:25.192Z,10.07
2019-02-04T05:35:52.595Z,9.83
2019-02-04T05:38:20.091Z,9.40
2019-02-04T05:40:47.921Z,9.97
2019-02-04T05:43:15.350Z,9.60
2019-02-04T05:45:43.180Z,9.50
2019-02-04T05:48:11.105Z,9.23
2019-02-04T05:50:38.356Z,9.77
2019-02-04T05:53:06.459Z,8.73
2019-02-04T05:55:34.038Z,9.27
2019-02-04T05:58:01.893Z,8.63
2019-02-04T06:00:36.418Z,8.63
2019-02-04T06:03:04.540Z,8.87
2019-02-04T06:05:32.410Z,9.43
2019-02-04T06:08:00.586Z,9.23
2019-02-04T06:10:28.342Z,9.47
2019-02-04T06:12:55.914Z,9.83
2019-02-04T06:15:23.508Z,10.33
2019-02-04T06:17:51.134Z,9.67
2019-02-04T06:20:24.951Z,9.50
2019-02-04T06:22:53.053Z,9.60
2019-02-04T06:25:21.026Z,9.60
2019-02-04T06:27:49.260Z,9.40
2019-02-04T06:30:17.293Z,8.97
2019-02-04T06:32:49.349Z,9.33
2019-02-04T06:35:17.425Z,10.33
2019-02-04T06:37:46.977Z,9.70
2019-02-04T06:40:15.715Z,8.93
2019-02-04T06:42:43.515Z,9.77
2019-02-04T06:45:12.700Z,9.07
2019-02-04T06:47:40.015Z,8.53
2019-02-04T06:50:11.048Z,7.73
2019-02-04T06:52:39.177Z,9.17
2019-02-04T06:55:11.346Z,10.87
2019-02-04T06:57:38.583Z,8.90
2019-02-04T07:00:08.073Z,10.97
2019-02-04T07:02:35.782Z,9.57
2019-02-04T07:05:04.858Z,10.57
2019-02-04T07:07:33.131Z,9.10
2019-02-04T07:10:00.415Z,10.07
2019-02-04T07:12:28.196Z,10.60
2019-02-04T07:14:55.646Z,10.10
2019-02-04T07:17:23.293Z,10.07
2019-02-04T07:19:50.831Z,10.13
2019-02-04T07:22:18.302Z,10.63
2019-02-04T07:24:47.735Z,11.07
2019-02-04T07:27:15.317Z,12.43
2019-02-04T07:29:42.431Z,11.17
2019-02-04T07:32:10.323Z,11.07
2019-02-04T07:34:37.613Z,11.07
2019-02-04T07:37:05.242Z,10.90
2019-02-04T07:39:32.762Z,12.10
2019-02-04T07:42:00.710Z,11.87
2019-02-04T07:44:28.371Z,12.80
2019-02-04T07:46:55.659Z,13.93
2019-02-04T07:49:23.126Z,12.57
2019-02-04T07:51:50.944Z,11.60
2019-02-04T07:54:18.326Z,12.70
2019-02-04T07:56:45.914Z,13.83
2019-02-04T07:59:13.855Z,14.87
2019-02-04T08:01:41.363Z,15.20
2019-02-04T08:04:09.493Z,14.73
2019-02-04T08:06:36.845Z,15.13
2019-02-04T08:09:08.203Z,16.67
2019-02-04T08:11:35.606Z,17.80
2019-02-04T08:14:04.155Z,18.30
2019-02-04T08:16:31.806Z,19.37
2019-02-04T08:18:59.213Z,19.37
2019-02-04T08:21:27.099Z,19.77
2019-02-04T08:23:54.412Z,21.77
2019-02-04T08:26:22.175Z,20.83
2019-02-04T08:28:49.668Z,19.80
2019-02-04T08:31:17.276Z,20.27
2019-02-04T08:33:44.657Z,20.37
2019-02-04T08:36:12.453Z,18.43
2019-02-04T08:38:39.608Z,20.10
2019-02-04T08:41:07.468Z,22.10
2019-02-04T08:43:35.267Z,19.03
2019-02-04T08:46:03.510Z,19.47
2019-02-04T08:48:31.152Z,20.50
2019-02-04T08:50:59.135Z,18.50
2019-02-04T08:53:26.382Z,17.43
2019-02-04T08:55:53.527Z,17.57
2019-02-04T08:58:21.223Z,17.30
2019-02-04T09:00:48.803Z,16.47
2019-02-04T09:03:16.298Z,16.50
2019-02-04T09:05:43.820Z,16.00
2019-02-04T09:08:11.232Z,15.90
2019-02-04T09:10:38.713Z,15.10
2019-02-04T09:13:08.922Z,15.17
2019-02-04T09:15:37.048Z,14.23
2019-02-04T09:18:04.737Z,14.23
2019-02-04T09:20:32.205Z,12.83
2019-02-04T09:22:59.576Z,14.33
2019-02-04T09:25:27.497Z,14.70
2019-02-04T09:27:56.070Z,15.63
2019-02-04T09:30:24.700Z,16.50
2019-02-04T09:32:52.751Z,15.03
2019-02-04T09:35:21.146Z,14.93
2019-02-04T09:37:48.848Z,14.90
2019-02-04T09:40:28.634Z,15.77
2019-02-04T09:42:56.464Z,13.73
2019-02-04T09:45:27.434Z,14.93
2019-02-04T09:47:54.007Z,15.37
2019-02-04T09:50:22.300Z,13.43
2019-02-04T09:52:49.968Z,14.33
2019-02-04T09:55:24.512Z,14.90
2019-02-04T09:57:52.039Z,16.30
2019-02-04T10:00:23.099Z,15.80
2019-02-04T10:02:51.826Z,15.23
2019-02-04T10:05:19.910Z,13.87
2019-02-04T10:07:47.499Z,14.50
2019-02-04T10:10:18.329Z,13.50
2019-02-04T10:12:46.872Z,12.97
2019-02-04T10:15:18.939Z,14.10
2019-02-04T10:17:46.736Z,13.50
2019-02-04T10:20:15.167Z,14.93
2019-02-04T10:22:46.455Z,13.27
2019-02-04T10:25:17.976Z,13.37
2019-02-04T10:27:45.389Z,12.43
2019-02-04T10:30:16.712Z,13.67
2019-02-04T10:32:45.633Z,12.10
2019-02-04T10:35:16.826Z,12.37
2019-02-04T10:37:44.142Z,12.93
2019-02-04T10:40:15.574Z,12.57
2019-02-04T10:42:43.424Z,11.67
2019-02-04T10:45:12.417Z,12.17
2019-02-04T10:47:40.748Z,12.43
2019-02-04T10:50:13.777Z,12.23
2019-02-04T10:52:42.023Z,10.47
2019-02-04T10:55:09.841Z,11.03
2019-02-04T10:57:40.471Z,11.97
2019-02-04T11:00:10.145Z,11.00
2019-02-04T11:02:37.491Z,11.50
2019-02-04T11:05:11.843Z,11.03
2019-02-04T11:07:39.532Z,11.80
2019-02-04T11:10:09.802Z,10.50
2019-02-04T11:12:37.054Z,11.43
2019-02-04T11:15:07.026Z,11.17
2019-02-04T11:17:34.323Z,11.57
2019-02-04T11:20:02.157Z,10.80
2019-02-04T11:22:30.310Z,10.03
2019-02-04T11:24:58.513Z,10.00
2019-02-04T11:27:27.541Z,9.67
2019-02-04T11:29:55.617Z,9.63
2019-02-04T11:32:23.071Z,10.73
2019-02-04T11:34:50.589Z,9.30
2019-02-04T11:37:17.949Z,8.97
2019-02-04T11:39:46.054Z,8.30
2019-02-04T11:42:13.639Z,9.60
2019-02-04T11:44:41.337Z,9.20
2019-02-04T11:47:09.261Z,13.00
2019-02-04T11:49:36.706Z,8.63
2019-02-04T11:52:04.290Z,8.53
2019-02-04T11:54:32.063Z,8.30
2019-02-04T11:57:00.489Z,8.40
2019-02-04T11:59:27.699Z,8.63
2019-02-04T12:01:55.628Z,8.80
2019-02-04T12:04:22.986Z,8.57
2019-02-04T12:06:50.913Z,7.57
2019-02-04T12:09:18.404Z,8.40
2019-02-04T12:11:46.079Z,8.90
2019-02-04T12:14:14.487Z,8.20
2019-02-04T12:16:42.012Z,8.37
2019-02-04T12:19:09.748Z,9.63
2019-02-04T12:21:36.995Z,8.60
2019-02-04T12:24:05.178Z,8.43
2019-02-04T12:26:32.896Z,7.50
2019-02-04T12:29:00.803Z,7.63
2019-02-04T12:31:28.462Z,7.03
2019-02-04T12:33:56.637Z,7.37
2019-02-04T12:36:24.303Z,6.60
2019-02-04T12:38:51.567Z,7.57
2019-02-04T12:41:18.942Z,6.87
2019-02-04T12:43:46.662Z,7.13
2019-02-04T12:46:14.680Z,7.27
2019-02-04T12:48:42.197Z,6.60
2019-02-04T12:51:09.975Z,7.10
2019-02-04T12:53:37.875Z,6.13
2019-02-04T12:56:05.354Z,6.93
2019-02-04T12:58:33.435Z,5.90
2019-02-04T13:01:01.428Z,6.13
2019-02-04T13:03:28.996Z,6.20
2019-02-04T13:05:58.234Z,6.50
2019-02-04T13:08:25.578Z,5.83
2019-02-04T13:10:55.241Z,6.23
2019-02-04T13:13:23.256Z,6.27
2019-02-04T13:15:51.055Z,7.00
2019-02-04T13:18:18.565Z,5.40
2019-02-04T13:20:46.515Z,5.47
2019-02-04T13:23:15.009Z,5.87
2019-02-04T13:25:42.761Z,5.57
2019-02-04T13:28:20.338Z,5.47
2019-02-04T13:30:47.794Z,5.30
2019-02-04T13:33:15.986Z,5.67
2019-02-04T13:35:44.046Z,4.17
2019-02-04T13:38:11.541Z,3.93
2019-02-04T13:40:44.425Z,3.93
2019-02-04T13:43:11.172Z,3.93
2019-02-04T13:45:38.542Z,5.17
2019-02-04T13:48:08.556Z,3.00
2019-02-04T13:50:37.799Z,3.50
2019-02-04T13:53:05.603Z,3.77
2019-02-04T13:55:33.478Z,3.53
2019-02-04T13:58:01.952Z,3.60
2019-02-04T14:00:30.207Z,3.83
2019-02-04T14:02:59.843Z,4.63
2019-02-04T14:05:31.443Z,4.10
2019-02-04T14:07:58.836Z,4.70
2019-02-04T14:10:30.555Z,4.73
2019-02-04T14:12:58.374Z,4.23
2019-02-04T14:15:26.757Z,4.50
2019-02-04T14:17:55.758Z,3.73
2019-02-04T14:20:23.246Z,4.10
2019-02-04T14:22:53.317Z,4.47
2019-02-04T14:25:20.848Z,3.90
2019-02-04T14:27:48.627Z,4.23
2019-02-04T14:30:24.025Z,3.97
2019-02-04T14:32:52.068Z,3.63
2019-02-04T14:35:19.993Z,3.40
2019-02-04T14:37:47.783Z,3.57
2019-02-04T14:40:18.414Z,3.53
2019-02-04T14:42:48.434Z,3.77
2019-02-04T14:45:58.307Z,4.17
2019-02-04T14:49:19.631Z,3.80
2019-02-04T14:52:24.299Z,3.50
2019-02-04T14:55:44.108Z,3.77
2019-02-04T14:58:50.003Z,3.43
2019-02-04T15:02:01.815Z,3.10
2019-02-04T15:05:33.294Z,3.50
2019-02-04T15:09:05.904Z,4.13
2019-02-04T15:12:11.360Z,4.13
2019-02-04T15:15:33.739Z,3.53
2019-02-04T15:18:30.054Z,3.97
2019-02-04T15:21:36.135Z,3.70
2019-02-04T15:24:36.029Z,3.13
2019-02-04T15:27:25.651Z,3.50
2019-02-04T15:30:18.158Z,3.53
2019-02-04T15:33:37.830Z,3.20
2019-02-04T15:37:03.921Z,3.57
2019-02-04T15:40:07.609Z,3.23
2019-02-04T15:43:24.816Z,2.77
2019-02-04T15:46:05.688Z,3.17
2019-02-04T15:49:31.297Z,3.40
2019-02-04T15:51:59.661Z,2.90
2019-02-04T15:54:28.133Z,3.03
2019-02-04T15:56:55.668Z,3.60
2019-02-04T15:59:23.905Z,3.40
2019-02-04T16:01:52.104Z,2.97
2019-02-04T16:04:31.911Z,3.37
2019-02-04T16:06:59.740Z,3.23
2019-02-04T16:09:28.293Z,3.87
2019-02-04T16:11:55.673Z,3.77
2019-02-04T16:14:23.054Z,3.67
2019-02-04T16:16:51.292Z,3.60
2019-02-04T16:19:18.796Z,3.53
2019-02-04T16:21:46.409Z,3.57
2019-02-04T16:24:14.353Z,3.97
2019-02-04T16:26:41.706Z,3.53
2019-02-04T16:29:09.523Z,3.67
2019-02-04T16:31:36.945Z,3.87
2019-02-04T16:34:04.847Z,3.57
2019-02-04T16:36:32.806Z,3.17
2019-02-04T16:39:00.316Z,3.53
2019-02-04T16:41:28.174Z,3.23
2019-02-04T16:43:55.525Z,3.83
2019-02-04T16:46:23.408Z,3.53
2019-02-04T16:48:50.809Z,3.47
2019-02-04T16:51:18.495Z,4.17
2019-02-04T16:53:46.824Z,4.00
2019-02-04T16:56:14.254Z,4.03
2019-02-04T16:58:41.803Z,3.60
2019-02-04T17:01:09.245Z,3.53
2019-02-04T17:03:37.395Z,4.00
2019-02-04T17:06:05.251Z,3.77
2019-02-04T17:08:33.851Z,3.70
2019-02-04T17:11:01.359Z,3.97
2019-02-04T17:13:29.899Z,4.10
2019-02-04T17:15:57.944Z,3.57
2019-02-04T17:18:34.479Z,3.70
2019-02-04T17:21:02.861Z,3.67
2019-02-04T17:23:30.085Z,3.43
2019-02-04T17:25:59.624Z,3.80
2019-02-04T17:28:26.692Z,3.33
2019-02-04T17:30:54.318Z,3.83
2019-02-04T17:33:22.188Z,4.17
2019-02-04T17:35:49.566Z,3.83
2019-02-04T17:38:17.033Z,4.73
2019-02-04T17:40:44.293Z,5.43
2019-02-04T17:43:14.819Z,4.27
2019-02-04T17:45:43.200Z,4.55
2019-02-04T17:48:16.650Z,4.30
2019-02-04T17:50:44.529Z,8.07
2019-02-04T17:53:12.289Z,4.47
2019-02-04T17:55:39.749Z,3.60
2019-02-04T17:58:08.718Z,3.70
2019-02-04T18:00:39.846Z,4.27
2019-02-04T18:03:08.374Z,4.00
2019-02-04T18:05:35.981Z,4.20
2019-02-04T18:08:05.383Z,4.23
2019-02-04T18:10:33.331Z,4.27
2019-02-04T18:13:00.792Z,4.50
2019-02-04T18:15:28.106Z,4.57
2019-02-04T18:17:55.816Z,4.47
2019-02-04T18:20:23.077Z,4.03
2019-02-04T18:22:50.568Z,4.10
2019-02-04T18:25:18.153Z,3.73
2019-02-04T18:27:45.800Z,4.03
2019-02-04T18:30:16.243Z,4.83
2019-02-04T18:32:44.007Z,4.30
2019-02-04T18:35:12.566Z,4.80
2019-02-04T18:37:40.490Z,5.23
2019-02-04T18:40:10.485Z,4.57
2019-02-04T18:42:41.038Z,5.10
2019-02-04T18:45:16.521Z,4.67
2019-02-04T18:47:44.240Z,5.20
2019-02-04T18:50:13.974Z,4.77
2019-02-04T18:52:41.686Z,4.53
2019-02-04T18:55:13.619Z,4.73
2019-02-04T18:57:41.282Z,5.20
2019-02-04T19:00:10.982Z,5.40
2019-02-04T19:02:38.742Z,4.97
2019-02-04T19:05:07.399Z,6.07
2019-02-04T19:07:35.282Z,6.50
2019-02-04T19:10:05.138Z,6.10
2019-02-04T19:12:32.630Z,5.53
2019-02-04T19:15:04.762Z,4.97
2019-02-04T19:17:33.004Z,5.07
2019-02-04T19:20:00.517Z,5.50
2019-02-04T19:22:27.844Z,6.40
2019-02-04T19:24:55.579Z,5.17
2019-02-04T19:27:23.361Z,5.17
2019-02-04T19:29:50.646Z,5.37
2019-02-04T19:32:18.702Z,5.47
2019-02-04T19:34:46.371Z,5.10
2019-02-04T19:37:14.032Z,5.00
2019-02-04T19:39:41.677Z,5.03
2019-02-04T19:42:09.207Z,5.27
2019-02-04T19:44:36.710Z,5.20
2019-02-04T19:47:05.745Z,5.50
2019-02-04T19:49:33.022Z,5.77
2019-02-04T19:52:00.875Z,5.03
2019-02-04T19:54:28.336Z,4.93
2019-02-04T19:56:55.948Z,4.87
2019-02-04T19:59:24.088Z,5.10
2019-02-04T20:01:57.881Z,4.87
2019-02-04T20:04:31.001Z,5.00
2019-02-04T20:06:58.638Z,5.50
2019-02-04T20:09:25.991Z,5.60
2019-02-04T20:11:53.813Z,4.77
2019-02-04T20:14:21.445Z,5.40
2019-02-04T20:16:48.817Z,5.60
2019-02-04T20:19:16.473Z,5.50
2019-02-04T20:21:45.625Z,5.00
2019-02-04T20:24:13.283Z,5.30
2019-02-04T20:26:41.025Z,6.10
2019-02-04T20:29:09.030Z,5.60
2019-02-04T20:31:37.054Z,6.67
2019-02-04T20:34:05.378Z,6.37
2019-02-04T20:36:32.819Z,5.73
2019-02-04T20:39:00.486Z,6.87
2019-02-04T20:41:27.726Z,6.70
2019-02-04T20:43:55.458Z,6.83
2019-02-04T20:46:23.226Z,6.40
2019-02-04T20:48:50.845Z,7.30
2019-02-04T20:51:18.451Z,6.70
2019-02-04T20:53:46.775Z,6.47
2019-02-04T20:56:14.204Z,6.83
2019-02-04T20:58:41.788Z,7.63
2019-02-04T21:01:09.362Z,6.77
2019-02-04T21:03:36.890Z,6.67
2019-02-04T21:06:04.679Z,7.00
2019-02-04T21:08:32.489Z,7.20
2019-02-04T21:11:00.618Z,6.50
2019-02-04T21:13:28.069Z,6.60
2019-02-04T21:15:56.058Z,6.70
2019-02-04T21:18:23.426Z,6.17
2019-02-04T21:20:51.189Z,6.20
2019-02-04T21:23:18.455Z,7.10
2019-02-04T21:25:45.677Z,6.97
2019-02-04T21:28:13.218Z,6.50
2019-02-04T21:30:42.034Z,6.50
2019-02-04T21:33:10.178Z,7.20
2019-02-04T21:35:37.828Z,6.17
2019-02-04T21:38:05.873Z,6.30
2019-02-04T21:40:33.210Z,6.20
2019-02-04T21:43:00.700Z,6.07
2019-02-04T21:45:28.742Z,6.60
2019-02-04T21:47:56.448Z,6.17
2019-02-04T21:50:25.034Z,6.73
2019-02-04T21:52:52.464Z,6.33
2019-02-04T21:55:21.878Z,6.20
2019-02-04T21:57:49.638Z,6.77
2019-02-04T22:00:20.575Z,6.73
2019-02-04T22:02:47.948Z,6.03
2019-02-04T22:05:16.639Z,6.97
2019-02-04T22:07:44.027Z,7.27
2019-02-04T22:10:15.942Z,7.20
2019-02-04T22:12:43.520Z,6.10
2019-02-04T22:15:11.566Z,7.13
2019-02-04T22:17:39.285Z,7.27
2019-02-04T22:20:08.303Z,6.97
2019-02-04T22:22:36.012Z,6.57
2019-02-04T22:25:05.734Z,6.63
2019-02-04T22:27:33.975Z,6.77
2019-02-04T22:30:01.435Z,6.50
2019-02-04T22:32:29.082Z,5.83
2019-02-04T22:34:57.354Z,6.97
2019-02-04T22:37:25.183Z,7.10
2019-02-04T22:39:52.986Z,6.63
2019-02-04T22:42:20.391Z,6.90
2019-02-04T22:44:47.664Z,6.70
2019-02-04T22:47:15.446Z,7.00
2019-02-04T22:49:42.967Z,6.80
2019-02-04T22:52:10.353Z,7.13
2019-02-04T22:54:37.926Z,6.43
2019-02-04T22:57:05.412Z,6.73
2019-02-04T22:59:33.052Z,6.67
2019-02-04T23:02:00.998Z,6.00
2019-02-04T23:04:28.796Z,6.70
2019-02-04T23:06:56.165Z,6.80
2019-02-04T23:09:24.975Z,6.13
2019-02-04T23:11:52.216Z,5.87
2019-02-04T23:14:19.501Z,6.33
2019-02-04T23:16:46.855Z,6.27
2019-02-04T23:19:14.315Z,5.90
2019-02-04T23:21:41.660Z,5.67
2019-02-04T23:24:08.814Z,6.67
2019-02-04T23:26:36.840Z,6.63
2019-02-04T23:29:04.771Z,6.43
2019-02-04T23:31:32.268Z,6.43
2019-02-04T23:34:00.432Z,6.07
2019-02-04T23:36:28.860Z,6.57
2019-02-04T23:38:56.733Z,7.03
2019-02-04T23:41:24.286Z,6.77
2019-02-04T23:43:51.580Z,6.27
2019-02-04T23:46:19.203Z,7.00
2019-02-04T23:48:46.973Z,6.93
2019-02-04T23:51:14.293Z,6.70
2019-02-04T23:53:42.460Z,7.30
2019-02-04T23:56:10.462Z,7.20
2019-02-04T23:58:38.447Z,7.20
